createdAt,value
2022-08-02T00:01:36.164Z,25.20
2022-08-02T00:04:05.479Z,24.23
2022-08-02T00:06:35.075Z,26.09
2022-08-02T00:09:06.039Z,26.09
2022-08-02T00:11:35.321Z,24.97
2022-08-02T00:14:05.090Z,23.77
2022-08-02T00:16:37.595Z,23.77
2022-08-02T00:19:04.965Z,24.24
2022-08-02T00:21:34.163Z,23.28
2022-08-02T00:24:29.017Z,25.22
2022-08-02T00:26:34.090Z,25.22
2022-08-02T00:29:03.298Z,25.35
2022-08-02T00:31:33.192Z,24.85
2022-08-02T00:34:05.240Z,24.77
2022-08-02T00:36:33.245Z,24.77
2022-08-02T00:39:02.341Z,23.45
2022-08-02T00:41:31.554Z,24.05
2022-08-02T00:44:00.624Z,24.05
2022-08-02T00:46:29.709Z,26.38
2022-08-02T00:48:58.961Z,25.23
2022-08-02T00:51:28.137Z,23.49
2022-08-02T00:53:57.313Z,23.49
2022-08-02T00:56:29.490Z,24.79
2022-08-02T00:58:58.690Z,25.10
2022-08-02T01:01:56.627Z,23.66
2022-08-02T01:04:13.299Z,23.66
2022-08-02T01:06:43.863Z,24.65
2022-08-02T01:09:13.118Z,24.04
2022-08-02T01:11:42.703Z,24.04
2022-08-02T01:14:14.840Z,25.14
2022-08-02T01:16:55.655Z,24.79
2022-08-02T01:19:52.290Z,24.79
2022-08-02T01:23:00.710Z,24.62
2022-08-02T01:25:29.889Z,25.32
2022-08-02T01:28:34.957Z,23.99
2022-08-02T01:31:15.919Z,25.62
2022-08-02T01:33:59.742Z,23.96
2022-08-02T01:36:31.811Z,23.38
2022-08-02T01:39:02.257Z,23.48
2022-08-02T01:41:33.775Z,24.22
2022-08-02T01:44:05.033Z,22.72
2022-08-02T01:46:35.763Z,22.13
2022-08-02T01:49:09.446Z,22.13
2022-08-02T01:51:59.150Z,22.24
2022-08-02T01:54:30.798Z,22.41
2022-08-02T01:57:02.767Z,22.38
2022-08-02T01:59:33.813Z,22.38
2022-08-02T02:02:04.201Z,23.24
2022-08-02T02:04:34.454Z,24.11
2022-08-02T02:07:04.754Z,23.89
2022-08-02T02:09:36.742Z,22.89
2022-08-02T02:12:13.458Z,22.89
2022-08-02T02:14:42.133Z,23.52
2022-08-02T02:17:54.839Z,24.71
2022-08-02T02:19:47.765Z,23.51
2022-08-02T02:22:17.173Z,23.51
2022-08-02T02:24:46.902Z,24.70
2022-08-02T02:27:18.635Z,25.21
2022-08-02T02:29:50.814Z,23.05
2022-08-02T02:32:22.081Z,23.05
2022-08-02T02:34:52.544Z,24.51
2022-08-02T02:37:24.538Z,24.69
2022-08-02T02:39:55.507Z,24.01
2022-08-02T02:42:27.464Z,24.01
2022-08-02T02:44:58.237Z,23.38
2022-08-02T02:47:41.134Z,24.03
2022-08-02T02:50:02.680Z,24.04
2022-08-02T02:52:32.632Z,23.94
2022-08-02T02:55:03.166Z,26.62
2022-08-02T02:57:34.109Z,24.88
2022-08-02T03:00:04.109Z,25.11
2022-08-02T03:02:33.433Z,24.37
2022-08-02T03:05:04.327Z,26.86
2022-08-02T03:07:34.932Z,26.86
2022-08-02T03:10:07.149Z,23.73
2022-08-02T03:12:37.606Z,25.07
2022-08-02T03:15:09.478Z,25.07
2022-08-02T03:17:43.512Z,24.13
2022-08-02T03:20:17.930Z,24.45
2022-08-02T03:22:48.419Z,23.72
2022-08-02T03:25:18.947Z,23.72
2022-08-02T03:27:48.513Z,23.21
2022-08-02T03:30:17.629Z,24.80
2022-08-02T03:32:49.715Z,24.80
2022-08-02T03:35:24.076Z,24.59
2022-08-02T03:37:54.845Z,24.84
2022-08-02T03:40:25.106Z,25.26
2022-08-02T03:42:54.961Z,25.63
2022-08-02T03:45:25.414Z,25.63
2022-08-02T03:47:54.799Z,24.86
2022-08-02T03:50:26.192Z,24.86
2022-08-02T03:52:56.017Z,24.57
2022-08-02T03:55:25.406Z,24.65
2022-08-02T03:57:54.706Z,25.19
2022-08-02T04:00:24.993Z,25.21
2022-08-02T04:02:54.313Z,24.92
2022-08-02T04:05:23.835Z,24.92
2022-08-02T04:08:02.729Z,24.55
2022-08-02T04:10:23.853Z,24.32
2022-08-02T04:12:53.415Z,22.69
2022-08-02T04:15:24.082Z,22.63
2022-08-02T04:17:59.138Z,22.63
2022-08-02T04:20:36.302Z,21.28
2022-08-02T04:23:08.262Z,21.28
2022-08-02T04:25:40.810Z,20.60
2022-08-02T04:28:17.107Z,20.44
2022-08-02T04:30:43.803Z,21.40
2022-08-02T04:33:13.852Z,21.65
2022-08-02T04:35:43.317Z,21.20
2022-08-02T04:38:15.109Z,21.20
2022-08-02T04:40:52.546Z,20.90
2022-08-02T04:43:22.279Z,20.63
2022-08-02T04:45:56.338Z,20.43
2022-08-02T04:48:25.650Z,19.75
2022-08-02T04:50:54.864Z,19.62
2022-08-02T04:53:24.073Z,19.62
2022-08-02T04:55:53.140Z,19.14
2022-08-02T04:58:40.124Z,19.14
2022-08-02T05:00:53.088Z,20.26
2022-08-02T05:03:22.401Z,19.65
2022-08-02T05:05:51.465Z,18.76
2022-08-02T05:08:20.554Z,18.76
2022-08-02T05:10:49.674Z,18.74
2022-08-02T05:13:18.678Z,18.74
2022-08-02T05:15:51.904Z,18.55
2022-08-02T05:18:21.027Z,19.57
2022-08-02T05:20:51.459Z,19.69
2022-08-02T05:23:20.970Z,19.27
2022-08-02T05:25:50.167Z,18.00
2022-08-02T05:28:19.260Z,18.43
2022-08-02T05:30:48.316Z,18.43
2022-08-02T05:33:19.195Z,18.46
2022-08-02T05:35:48.338Z,19.83
2022-08-02T05:38:17.506Z,18.66
2022-08-02T05:40:54.884Z,17.19
2022-08-02T05:43:19.158Z,17.19
2022-08-02T05:45:49.884Z,19.58
2022-08-02T05:48:18.990Z,19.58
2022-08-02T05:50:51.157Z,17.39
2022-08-02T05:53:32.003Z,17.83
2022-08-02T05:56:28.420Z,18.47
2022-08-02T05:59:06.466Z,18.05
2022-08-02T06:01:38.444Z,18.05
2022-08-02T06:04:10.093Z,18.84
2022-08-02T06:06:41.346Z,18.84
2022-08-02T06:09:23.015Z,18.12
2022-08-02T06:12:11.563Z,18.12
2022-08-02T06:14:24.657Z,17.31
2022-08-02T06:16:56.972Z,17.31
2022-08-02T06:19:27.228Z,17.60
2022-08-02T06:22:32.097Z,16.37
2022-08-02T06:24:28.178Z,17.35
2022-08-02T06:26:58.148Z,17.35
2022-08-02T06:29:28.344Z,16.48
2022-08-02T06:31:58.096Z,16.84
2022-08-02T06:34:27.454Z,16.84
2022-08-02T06:37:20.785Z,15.83
2022-08-02T06:39:55.507Z,15.83
2022-08-02T06:42:27.675Z,17.28
2022-08-02T06:44:58.068Z,17.22
2022-08-02T06:47:28.100Z,17.22
2022-08-02T06:49:58.779Z,17.80
2022-08-02T06:52:31.491Z,17.46
2022-08-02T06:55:02.622Z,16.31
2022-08-02T06:57:32.819Z,16.31
2022-08-02T07:00:04.687Z,16.92
2022-08-02T07:02:34.146Z,18.17
2022-08-02T07:05:03.634Z,15.88
2022-08-02T07:07:32.760Z,15.88
2022-08-02T07:10:02.462Z,15.30
2022-08-02T07:12:33.571Z,15.07
2022-08-02T07:15:04.950Z,15.85
2022-08-02T07:17:34.653Z,15.85
2022-08-02T07:20:04.875Z,17.07
2022-08-02T07:22:34.109Z,14.66
2022-08-02T07:25:03.795Z,17.59
2022-08-02T07:27:33.192Z,17.47
2022-08-02T07:30:02.839Z,17.47
2022-08-02T07:32:33.556Z,18.19
2022-08-02T07:35:06.961Z,17.17
2022-08-02T07:37:55.403Z,18.23
2022-08-02T07:40:13.463Z,18.23
2022-08-02T07:42:39.989Z,18.10
2022-08-02T07:45:09.703Z,18.10
2022-08-02T07:47:41.213Z,16.55
2022-08-02T07:50:12.316Z,16.02
2022-08-02T07:52:42.682Z,16.68
2022-08-02T07:55:13.705Z,16.68
2022-08-02T07:57:46.504Z,15.02
2022-08-02T08:00:16.310Z,15.02
2022-08-02T08:02:46.037Z,16.94
2022-08-02T08:05:15.318Z,18.56
2022-08-02T08:07:44.522Z,16.84
2022-08-02T08:10:13.752Z,16.57
2022-08-02T08:12:42.815Z,16.57
2022-08-02T08:15:12.699Z,16.61
2022-08-02T08:17:41.828Z,17.28
2022-08-02T08:20:15.612Z,17.28
2022-08-02T08:22:42.191Z,16.65
2022-08-02T08:25:11.574Z,16.65
2022-08-02T08:27:42.095Z,15.89
2022-08-02T08:30:12.442Z,16.23
2022-08-02T08:32:41.725Z,16.23
2022-08-02T08:35:11.066Z,16.85
2022-08-02T08:37:40.955Z,16.86
2022-08-02T08:40:12.598Z,16.86
2022-08-02T08:42:42.065Z,16.65
2022-08-02T08:45:11.914Z,17.77
2022-08-02T08:47:43.788Z,16.86
2022-08-02T08:50:21.304Z,16.86
2022-08-02T08:53:04.245Z,15.64
2022-08-02T08:55:35.176Z,19.67
2022-08-02T08:58:05.537Z,19.67
2022-08-02T09:00:37.150Z,18.91
2022-08-02T09:03:08.764Z,19.46
2022-08-02T09:05:39.720Z,18.20
2022-08-02T09:08:13.477Z,18.20
2022-08-02T09:10:45.257Z,19.52
2022-08-02T09:13:31.190Z,18.25
2022-08-02T09:16:11.739Z,18.25
2022-08-02T09:18:44.029Z,20.03
2022-08-02T09:21:15.592Z,20.20
2022-08-02T09:23:48.322Z,19.58
2022-08-02T09:26:19.987Z,19.81
2022-08-02T09:28:51.945Z,19.81
2022-08-02T09:31:23.901Z,19.95
2022-08-02T09:34:02.267Z,19.02
2022-08-02T09:36:43.082Z,18.51
2022-08-02T09:39:15.152Z,17.76
2022-08-02T09:41:46.438Z,18.24
2022-08-02T09:44:17.897Z,16.53
2022-08-02T09:46:47.947Z,16.53
2022-08-02T09:49:19.736Z,17.14
2022-08-02T09:51:51.792Z,19.06
2022-08-02T09:54:25.921Z,18.85
2022-08-02T09:57:00.590Z,18.42
2022-08-02T09:59:31.240Z,19.92
2022-08-02T10:02:04.072Z,19.92
2022-08-02T10:04:52.966Z,19.49
2022-08-02T10:07:05.846Z,18.17
2022-08-02T10:09:38.026Z,19.14
2022-08-02T10:12:07.435Z,19.14
2022-08-02T10:14:36.703Z,20.71
2022-08-02T10:17:06.507Z,21.04
2022-08-02T10:19:59.780Z,22.28
2022-08-02T10:22:09.082Z,21.10
2022-08-02T10:24:47.518Z,21.10
2022-08-02T10:27:13.883Z,22.84
2022-08-02T10:29:55.043Z,22.84
2022-08-02T10:32:24.839Z,22.67
2022-08-02T10:35:02.754Z,22.67
2022-08-02T10:37:33.778Z,22.56
2022-08-02T10:40:03.338Z,22.56
2022-08-02T10:42:49.892Z,22.67
2022-08-02T10:45:21.620Z,23.51
2022-08-02T10:48:12.002Z,22.17
2022-08-02T10:50:53.321Z,22.51
2022-08-02T10:53:27.390Z,23.73
2022-08-02T10:55:59.173Z,21.99
2022-08-02T10:58:31.876Z,21.99
2022-08-02T11:01:06.340Z,21.34
2022-08-02T11:03:40.312Z,22.71
2022-08-02T11:06:24.718Z,21.94
2022-08-02T11:08:45.661Z,21.94
2022-08-02T11:11:19.988Z,20.46
2022-08-02T11:14:10.910Z,21.60
2022-08-02T11:17:02.854Z,20.81
2022-08-02T11:19:32.345Z,20.81
2022-08-02T11:22:10.440Z,20.69
2022-08-02T11:24:41.662Z,20.94
2022-08-02T11:27:13.028Z,21.52
2022-08-02T11:29:45.201Z,20.81
2022-08-02T11:32:20.025Z,20.01
2022-08-02T11:34:52.018Z,20.01
2022-08-02T11:37:36.755Z,18.91
2022-08-02T11:40:19.810Z,19.09
2022-08-02T11:42:44.618Z,19.09
2022-08-02T11:45:20.803Z,20.18
2022-08-02T11:47:54.902Z,19.12
2022-08-02T11:50:30.225Z,20.16
2022-08-02T11:52:56.470Z,19.84
2022-08-02T11:55:30.423Z,19.84
2022-08-02T11:58:06.345Z,19.50
2022-08-02T12:00:36.575Z,20.80
2022-08-02T12:03:07.174Z,19.82
2022-08-02T12:06:04.561Z,20.07
2022-08-02T12:08:10.776Z,20.07
2022-08-02T12:10:43.648Z,19.63
2022-08-02T12:13:12.828Z,19.72
2022-08-02T12:15:45.535Z,19.72
2022-08-02T12:18:35.742Z,20.75
2022-08-02T12:21:05.770Z,21.00
2022-08-02T12:23:36.296Z,20.96
2022-08-02T12:26:09.480Z,20.96
2022-08-02T12:28:41.936Z,20.45
2022-08-02T12:31:14.490Z,20.30
2022-08-02T12:33:49.230Z,20.83
2022-08-02T12:36:23.648Z,20.22
2022-08-02T12:38:54.330Z,20.51
2022-08-02T12:41:24.010Z,21.43
2022-08-02T12:43:56.145Z,21.43
2022-08-02T12:46:26.847Z,21.28
2022-08-02T12:49:16.932Z,20.88
2022-08-02T12:51:56.548Z,20.08
2022-08-02T12:54:31.090Z,20.46
2022-08-02T12:56:53.315Z,20.46
2022-08-02T12:59:39.991Z,21.51
2022-08-02T13:02:12.802Z,21.51
2022-08-02T13:04:49.965Z,21.89
2022-08-02T13:07:13.953Z,20.81
2022-08-02T13:09:45.891Z,20.81
2022-08-02T13:12:15.987Z,21.51
2022-08-02T13:14:45.462Z,20.77
2022-08-02T13:17:14.811Z,20.85
2022-08-02T13:19:44.005Z,20.85
2022-08-02T13:22:13.557Z,19.62
2022-08-02T13:24:55.850Z,19.62
2022-08-02T13:27:14.875Z,19.21
2022-08-02T13:29:44.296Z,19.97
2022-08-02T13:32:13.789Z,20.24
2022-08-02T13:34:43.396Z,21.77
2022-08-02T13:37:12.809Z,21.02
2022-08-02T13:39:42.591Z,19.82
2022-08-02T13:42:17.165Z,19.89
2022-08-02T13:44:43.670Z,19.81
2022-08-02T13:47:13.080Z,19.38
2022-08-02T13:49:50.969Z,19.38
2022-08-02T13:52:13.919Z,21.00
2022-08-02T13:54:43.431Z,19.30
2022-08-02T13:57:12.524Z,20.67
2022-08-02T13:59:56.362Z,20.67
2022-08-02T14:02:12.982Z,21.14
2022-08-02T14:04:43.400Z,19.91
2022-08-02T14:07:13.105Z,19.91
2022-08-02T14:09:43.797Z,19.67
2022-08-02T14:12:13.543Z,19.67
2022-08-02T14:14:42.847Z,20.68
2022-08-02T14:17:11.970Z,20.68
2022-08-02T14:19:41.179Z,20.66
2022-08-02T14:22:10.774Z,20.60
2022-08-02T14:24:41.991Z,20.72
2022-08-02T14:27:11.397Z,20.91
2022-08-02T14:29:40.505Z,20.87
2022-08-02T14:32:10.350Z,20.87
2022-08-02T14:34:39.936Z,19.95
2022-08-02T14:37:09.163Z,21.36
2022-08-02T14:39:42.879Z,20.00
2022-08-02T14:42:09.364Z,20.00
2022-08-02T14:44:39.057Z,19.94
2022-08-02T14:47:08.153Z,20.27
2022-08-02T14:49:41.724Z,20.27
2022-08-02T14:52:08.207Z,20.91
2022-08-02T14:54:37.396Z,21.36
2022-08-02T14:57:06.662Z,19.20
2022-08-02T14:59:35.889Z,19.20
2022-08-02T15:02:06.616Z,19.48
2022-08-02T15:04:42.447Z,20.69
2022-08-02T15:07:08.321Z,19.01
2022-08-02T15:09:39.776Z,19.01
2022-08-02T15:12:09.508Z,20.36
2022-08-02T15:14:39.705Z,20.38
2022-08-02T15:17:10.224Z,19.99
2022-08-02T15:19:58.868Z,19.99
2022-08-02T15:22:13.204Z,19.74
2022-08-02T15:24:43.224Z,19.65
2022-08-02T15:27:14.567Z,19.67
2022-08-02T15:29:45.114Z,19.67
2022-08-02T15:32:15.113Z,20.09
2022-08-02T15:34:44.524Z,19.46
2022-08-02T15:37:13.722Z,18.74
2022-08-02T15:39:42.936Z,19.40
2022-08-02T15:42:12.301Z,19.40
2022-08-02T15:44:41.736Z,20.27
2022-08-02T15:47:10.820Z,19.79
2022-08-02T15:49:41.796Z,19.99
2022-08-02T15:52:12.056Z,20.40
2022-08-02T15:54:41.387Z,20.01
2022-08-02T15:57:10.609Z,19.76
2022-08-02T15:59:39.887Z,19.97
2022-08-02T16:02:09.150Z,20.47
2022-08-02T16:04:38.517Z,20.42
2022-08-02T16:07:07.695Z,19.70
2022-08-02T16:09:37.181Z,20.56
2022-08-02T16:12:06.962Z,19.60
2022-08-02T16:14:36.291Z,19.37
2022-08-02T16:17:05.527Z,19.37
2022-08-02T16:19:48.363Z,19.61
2022-08-02T16:22:05.948Z,20.47
2022-08-02T16:24:36.873Z,20.19
2022-08-02T16:27:06.105Z,20.45
2022-08-02T16:29:36.795Z,20.45
2022-08-02T16:32:07.245Z,20.55
2022-08-02T16:34:57.041Z,19.98
2022-08-02T16:37:08.500Z,21.69
2022-08-02T16:39:37.833Z,20.95
2022-08-02T16:42:07.135Z,20.39
2022-08-02T16:44:37.030Z,20.39
2022-08-02T16:47:07.075Z,20.23
2022-08-02T16:50:04.929Z,20.56
2022-08-02T16:54:38.824Z,20.58
2022-08-02T16:57:07.920Z,20.71
2022-08-02T16:59:42.859Z,21.79
2022-08-02T17:02:15.113Z,21.79
2022-08-02T17:04:39.312Z,21.96
2022-08-02T17:07:16.275Z,21.96
2022-08-02T17:10:04.174Z,21.64
2022-08-02T17:12:16.179Z,21.64
2022-08-02T17:14:54.806Z,22.62
2022-08-02T17:17:15.872Z,21.83
2022-08-02T17:19:46.624Z,21.83
2022-08-02T17:22:17.690Z,21.65
2022-08-02T17:24:48.436Z,21.55
2022-08-02T17:27:18.108Z,21.70
2022-08-02T17:29:49.196Z,21.94
2022-08-02T17:32:18.900Z,21.73
2022-08-02T17:34:56.425Z,22.18
2022-08-02T17:37:19.178Z,21.93
2022-08-02T17:39:51.986Z,21.21
2022-08-02T17:44:52.088Z,21.03
2022-08-02T17:47:21.787Z,21.63
2022-08-02T17:49:52.633Z,21.63
2022-08-02T17:52:50.230Z,21.97
2022-08-02T17:54:54.402Z,21.50
2022-08-02T17:57:23.499Z,21.44
2022-08-02T18:00:04.350Z,21.88
2022-08-02T18:02:32.367Z,22.02
2022-08-02T18:05:01.479Z,22.02
2022-08-02T18:07:49.585Z,21.77
2022-08-02T18:10:03.592Z,22.35
2022-08-02T18:12:34.681Z,22.80
2022-08-02T18:15:06.831Z,23.33
2022-08-02T18:17:34.596Z,23.19
2022-08-02T18:20:10.524Z,22.28
2022-08-02T18:22:35.861Z,22.28
2022-08-02T18:27:38.982Z,23.41
2022-08-02T18:30:09.176Z,23.70
2022-08-02T18:34:00.517Z,23.50
2022-08-02T18:35:10.755Z,23.50
2022-08-02T18:37:43.683Z,24.10
2022-08-02T18:40:11.436Z,24.10
2022-08-02T18:42:41.521Z,24.86
2022-08-02T18:45:19.885Z,24.14
2022-08-02T18:47:42.302Z,24.14
2022-08-02T18:50:13.239Z,23.49
2022-08-02T18:52:47.606Z,23.24
2022-08-02T18:55:17.144Z,24.34
2022-08-02T18:58:02.052Z,24.17
2022-08-02T19:00:20.571Z,23.70
2022-08-02T19:02:48.929Z,24.19
2022-08-02T19:05:21.054Z,24.19
2022-08-02T19:07:49.879Z,23.92
2022-08-02T19:10:19.723Z,24.31
2022-08-02T19:12:51.522Z,23.73
2022-08-02T19:15:19.567Z,23.53
2022-08-02T19:17:55.472Z,23.14
2022-08-02T19:20:19.918Z,23.14
2022-08-02T19:22:53.564Z,23.31
2022-08-02T19:25:21.077Z,23.31
2022-08-02T19:27:54.089Z,23.66
2022-08-02T19:30:25.838Z,24.63
2022-08-02T19:32:58.923Z,25.01
2022-08-02T19:35:30.648Z,24.35
2022-08-02T19:37:59.028Z,24.35
2022-08-02T19:40:29.031Z,25.23
2022-08-02T19:44:23.243Z,25.66
2022-08-02T19:45:49.113Z,25.28
2022-08-02T19:47:59.991Z,25.42
2022-08-02T19:50:29.291Z,24.99
2022-08-02T19:52:58.408Z,24.99
2022-08-02T19:56:01.281Z,24.72
2022-08-02T19:57:58.309Z,25.64
2022-08-02T20:00:27.715Z,25.55
2022-08-02T20:02:56.849Z,25.55
2022-08-02T20:05:27.553Z,24.78
2022-08-02T20:07:57.143Z,25.39
2022-08-02T20:10:27.503Z,26.13
2022-08-02T20:12:56.884Z,26.62
2022-08-02T20:15:51.796Z,27.68
2022-08-02T20:17:57.659Z,25.37
2022-08-02T20:20:30.499Z,25.37
2022-08-02T20:25:47.627Z,26.56
2022-08-02T20:28:16.728Z,26.35
2022-08-02T20:30:46.634Z,25.86
2022-08-02T20:33:21.791Z,26.90
2022-08-02T20:35:47.915Z,26.90
2022-08-02T20:38:17.010Z,26.43
2022-08-02T20:40:47.279Z,24.91
2022-08-02T20:43:16.762Z,24.91
2022-08-02T20:45:47.071Z,25.09
2022-08-02T20:48:16.303Z,24.55
2022-08-02T20:50:49.529Z,24.55
2022-08-02T20:53:23.321Z,25.07
2022-08-02T20:55:53.326Z,24.50
2022-08-02T20:58:27.405Z,24.50
2022-08-02T21:00:54.243Z,24.00
2022-08-02T21:03:23.315Z,23.88
2022-08-02T21:05:55.945Z,24.98
2022-08-02T21:08:24.109Z,24.98
2022-08-02T21:10:55.394Z,24.78
2022-08-02T21:13:26.117Z,24.78
2022-08-02T21:16:04.413Z,24.65
2022-08-02T21:18:34.207Z,24.53
2022-08-02T21:20:57.990Z,25.22
2022-08-02T21:23:28.518Z,25.22
2022-08-02T21:25:59.309Z,25.50
2022-08-02T21:28:43.296Z,25.50
2022-08-02T21:30:59.191Z,24.81
2022-08-02T21:33:28.767Z,24.94
2022-08-02T21:35:59.610Z,24.94
2022-08-02T21:38:35.769Z,24.81
2022-08-02T21:40:59.988Z,24.76
2022-08-02T21:43:38.417Z,23.88
2022-08-02T21:45:59.985Z,23.97
2022-08-02T21:48:29.285Z,23.97
2022-08-02T21:50:58.501Z,23.87
2022-08-02T21:53:42.789Z,23.87
2022-08-02T21:56:01.067Z,23.94
2022-08-02T21:58:29.278Z,22.92
2022-08-02T22:00:58.555Z,22.91
2022-08-02T22:03:29.640Z,23.73
2022-08-02T22:06:01.843Z,24.40
2022-08-02T22:08:32.561Z,24.87
2022-08-02T22:11:04.443Z,24.87
2022-08-02T22:13:38.641Z,25.81
2022-08-02T22:16:08.294Z,25.49
2022-08-02T22:18:38.133Z,25.49
2022-08-02T22:21:14.291Z,23.19
2022-08-02T22:23:50.372Z,23.19
2022-08-02T22:26:12.498Z,23.20
2022-08-02T22:28:51.090Z,23.20
2022-08-02T22:31:12.287Z,22.47
2022-08-02T22:34:01.826Z,23.58
2022-08-02T22:36:33.317Z,23.70
2022-08-02T22:39:03.164Z,23.39
2022-08-02T22:42:01.702Z,23.39
2022-08-02T22:44:03.303Z,23.34
2022-08-02T22:46:33.902Z,23.34
2022-08-02T22:49:03.333Z,23.07
2022-08-02T22:51:34.159Z,23.13
2022-08-02T22:54:03.494Z,23.75
2022-08-02T22:56:33.768Z,23.53
2022-08-02T22:58:51.180Z,21.21
2022-08-02T22:58:59.505Z,23.41
2022-08-02T22:59:06.461Z,26.88
2022-08-02T22:59:10.148Z,20.72
2022-08-02T23:01:34.907Z,23.83
2022-08-02T23:04:04.145Z,24.66
2022-08-02T23:06:33.316Z,25.62
2022-08-02T23:09:02.515Z,25.04
2022-08-02T23:11:31.737Z,25.31
2022-08-02T23:14:00.910Z,26.07
2022-08-02T23:16:48.067Z,26.07
2022-08-02T23:19:35.066Z,25.06
2022-08-02T23:22:04.343Z,23.85
2022-08-02T23:24:33.994Z,24.18
2022-08-02T23:27:03.276Z,24.10
2022-08-02T23:29:32.361Z,24.74
2022-08-02T23:32:01.851Z,24.72
2022-08-02T23:34:31.045Z,25.23
2022-08-02T23:37:00.242Z,24.54
2022-08-02T23:39:29.395Z,24.16
2022-08-02T23:41:58.951Z,25.25
2022-08-02T23:44:28.760Z,25.25
2022-08-02T23:47:00.621Z,24.77
2022-08-02T23:49:30.273Z,25.03
2022-08-02T23:52:01.870Z,25.70
2022-08-02T23:54:30.474Z,24.80
2022-08-02T23:56:59.694Z,25.08
2022-08-02T23:59:28.866Z,24.63
